sensor_id;sensor_type;location;lat;lon;timestamp;P1;durP1;ratioP1;P2;durP2;ratioP2
18693;SDS011;9477;51.414;10.362;2022-07-22T00:00:38;5.73;;;4.60;;
18693;SDS011;9477;51.414;10.362;2022-07-22T00:02:41;5.60;;;4.53;;
18693;SDS011;9477;51.414;10.362;2022-07-22T00:04:45;4.60;;;4.07;;
18693;SDS011;9477;51.414;10.362;2022-07-22T00:06:48;7.50;;;4.73;;
18693;SDS011;9477;51.414;10.362;2022-07-22T00:08:51;6.47;;;5.00;;
18693;SDS011;9477;51.414;10.362;2022-07-22T00:10:54;6.27;;;5.03;;
18693;SDS011;9477;51.414;10.362;2022-07-22T00:12:58;7.50;;;4.90;;
18693;SDS011;9477;51.414;10.362;2022-07-22T00:15:01;6.23;;;5.00;;
18693;SDS011;9477;51.414;10.362;2022-07-22T00:17:04;7.30;;;5.30;;
18693;SDS011;9477;51.414;10.362;2022-07-22T00:19:07;8.47;;;5.07;;
18693;SDS011;9477;51.414;10.362;2022-07-22T00:21:09;8.27;;;5.43;;
18693;SDS011;9477;51.414;10.362;2022-07-22T00:23:12;6.47;;;4.77;;
18693;SDS011;9477;51.414;10.362;2022-07-22T00:25:15;9.20;;;5.17;;
18693;SDS011;9477;51.414;10.362;2022-07-22T00:27:18;5.17;;;4.60;;
18693;SDS011;9477;51.414;10.362;2022-07-22T00:29:22;6.60;;;4.80;;
18693;SDS011;9477;51.414;10.362;2022-07-22T00:31:25;6.67;;;4.70;;
18693;SDS011;9477;51.414;10.362;2022-07-22T00:33:28;5.80;;;4.33;;
18693;SDS011;9477;51.414;10.362;2022-07-22T00:35:30;9.40;;;5.30;;
18693;SDS011;9477;51.414;10.362;2022-07-22T00:37:33;6.77;;;5.20;;
18693;SDS011;9477;51.414;10.362;2022-07-22T00:39:36;5.93;;;5.33;;
18693;SDS011;9477;51.414;10.362;2022-07-22T00:41:39;6.13;;;4.77;;
18693;SDS011;9477;51.414;10.362;2022-07-22T00:43:49;6.80;;;5.37;;
18693;SDS011;9477;51.414;10.362;2022-07-22T00:45:57;5.73;;;5.13;;
18693;SDS011;9477;51.414;10.362;2022-07-22T00:48:02;5.87;;;4.87;;
18693;SDS011;9477;51.414;10.362;2022-07-22T00:50:06;8.17;;;5.03;;
18693;SDS011;9477;51.414;10.362;2022-07-22T00:52:09;9.67;;;5.10;;
18693;SDS011;9477;51.414;10.362;2022-07-22T00:54:13;6.77;;;5.20;;
18693;SDS011;9477;51.414;10.362;2022-07-22T00:56:17;6.93;;;5.47;;
18693;SDS011;9477;51.414;10.362;2022-07-22T00:58:20;6.73;;;5.20;;
18693;SDS011;9477;51.414;10.362;2022-07-22T01:00:23;12.63;;;5.40;;
18693;SDS011;9477;51.414;10.362;2022-07-22T01:02:27;10.67;;;6.27;;
18693;SDS011;9477;51.414;10.362;2022-07-22T01:04:30;6.10;;;5.03;;
18693;SDS011;9477;51.414;10.362;2022-07-22T01:06:33;8.33;;;5.40;;
18693;SDS011;9477;51.414;10.362;2022-07-22T01:08:35;7.67;;;5.70;;
18693;SDS011;9477;51.414;10.362;2022-07-22T01:10:40;7.83;;;5.20;;
18693;SDS011;9477;51.414;10.362;2022-07-22T01:12:43;6.33;;;5.30;;
18693;SDS011;9477;51.414;10.362;2022-07-22T01:14:45;8.00;;;5.30;;
18693;SDS011;9477;51.414;10.362;2022-07-22T01:16:48;7.97;;;5.90;;
18693;SDS011;9477;51.414;10.362;2022-07-22T01:18:52;7.00;;;5.80;;
18693;SDS011;9477;51.414;10.362;2022-07-22T01:20:57;7.17;;;5.43;;
18693;SDS011;9477;51.414;10.362;2022-07-22T01:23:00;7.37;;;5.47;;
18693;SDS011;9477;51.414;10.362;2022-07-22T01:25:03;6.07;;;4.97;;
18693;SDS011;9477;51.414;10.362;2022-07-22T01:27:06;6.53;;;5.30;;
18693;SDS011;9477;51.414;10.362;2022-07-22T01:29:09;6.50;;;4.80;;
18693;SDS011;9477;51.414;10.362;2022-07-22T01:31:12;6.50;;;5.00;;
18693;SDS011;9477;51.414;10.362;2022-07-22T01:33:15;6.13;;;4.93;;
18693;SDS011;9477;51.414;10.362;2022-07-22T01:35:18;6.27;;;5.20;;
18693;SDS011;9477;51.414;10.362;2022-07-22T01:37:22;7.67;;;5.80;;
18693;SDS011;9477;51.414;10.362;2022-07-22T01:39:25;7.50;;;5.83;;
18693;SDS011;9477;51.414;10.362;2022-07-22T01:41:28;8.87;;;5.30;;
18693;SDS011;9477;51.414;10.362;2022-07-22T01:43:30;6.40;;;5.43;;
18693;SDS011;9477;51.414;10.362;2022-07-22T01:45:33;6.90;;;5.33;;
18693;SDS011;9477;51.414;10.362;2022-07-22T01:47:36;7.90;;;5.50;;
18693;SDS011;9477;51.414;10.362;2022-07-22T01:49:39;5.80;;;5.20;;
18693;SDS011;9477;51.414;10.362;2022-07-22T01:51:42;8.47;;;5.20;;
18693;SDS011;9477;51.414;10.362;2022-07-22T01:53:47;6.20;;;5.03;;
18693;SDS011;9477;51.414;10.362;2022-07-22T01:55:50;5.77;;;5.10;;
18693;SDS011;9477;51.414;10.362;2022-07-22T01:57:53;7.90;;;5.10;;
18693;SDS011;9477;51.414;10.362;2022-07-22T01:59:55;8.73;;;5.13;;
18693;SDS011;9477;51.414;10.362;2022-07-22T02:01:58;6.13;;;5.00;;
18693;SDS011;9477;51.414;10.362;2022-07-22T02:04:01;6.10;;;5.37;;
18693;SDS011;9477;51.414;10.362;2022-07-22T02:06:04;5.50;;;4.97;;
18693;SDS011;9477;51.414;10.362;2022-07-22T02:08:08;5.20;;;4.60;;
18693;SDS011;9477;51.414;10.362;2022-07-22T02:10:13;5.40;;;4.90;;
18693;SDS011;9477;51.414;10.362;2022-07-22T02:12:16;5.57;;;4.53;;
18693;SDS011;9477;51.414;10.362;2022-07-22T02:14:19;5.27;;;4.73;;
18693;SDS011;9477;51.414;10.362;2022-07-22T02:16:21;5.13;;;4.27;;
18693;SDS011;9477;51.414;10.362;2022-07-22T02:18:24;5.47;;;4.40;;
18693;SDS011;9477;51.414;10.362;2022-07-22T02:20:27;6.67;;;4.77;;
18693;SDS011;9477;51.414;10.362;2022-07-22T02:22:30;5.17;;;4.50;;
18693;SDS011;9477;51.414;10.362;2022-07-22T02:24:36;4.50;;;4.07;;
18693;SDS011;9477;51.414;10.362;2022-07-22T02:26:40;6.23;;;3.97;;
18693;SDS011;9477;51.414;10.362;2022-07-22T02:28:43;4.37;;;3.90;;
18693;SDS011;9477;51.414;10.362;2022-07-22T02:30:45;5.20;;;3.80;;
18693;SDS011;9477;51.414;10.362;2022-07-22T02:32:48;4.27;;;3.80;;
18693;SDS011;9477;51.414;10.362;2022-07-22T02:34:51;5.50;;;3.83;;
18693;SDS011;9477;51.414;10.362;2022-07-22T02:36:54;4.20;;;3.80;;
18693;SDS011;9477;51.414;10.362;2022-07-22T02:38:57;5.17;;;4.10;;
18693;SDS011;9477;51.414;10.362;2022-07-22T02:41:01;4.60;;;3.53;;
18693;SDS011;9477;51.414;10.362;2022-07-22T02:43:05;4.00;;;3.60;;
18693;SDS011;9477;51.414;10.362;2022-07-22T02:45:08;6.00;;;3.77;;
18693;SDS011;9477;51.414;10.362;2022-07-22T02:47:11;7.43;;;3.37;;
18693;SDS011;9477;51.414;10.362;2022-07-22T02:49:14;6.43;;;3.77;;
18693;SDS011;9477;51.414;10.362;2022-07-22T02:51:17;5.40;;;3.37;;
18693;SDS011;9477;51.414;10.362;2022-07-22T02:53:20;4.73;;;3.37;;
18693;SDS011;9477;51.414;10.362;2022-07-22T02:55:23;4.57;;;3.47;;
18693;SDS011;9477;51.414;10.362;2022-07-22T02:57:26;3.80;;;3.30;;
18693;SDS011;9477;51.414;10.362;2022-07-22T02:59:30;4.67;;;3.60;;
18693;SDS011;9477;51.414;10.362;2022-07-22T03:01:33;4.50;;;3.13;;
18693;SDS011;9477;51.414;10.362;2022-07-22T03:03:36;4.70;;;3.33;;
18693;SDS011;9477;51.414;10.362;2022-07-22T03:05:39;6.27;;;3.30;;
18693;SDS011;9477;51.414;10.362;2022-07-22T03:07:41;4.00;;;3.30;;
18693;SDS011;9477;51.414;10.362;2022-07-22T03:09:44;3.27;;;2.93;;
18693;SDS011;9477;51.414;10.362;2022-07-22T03:11:47;3.07;;;2.70;;
18693;SDS011;9477;51.414;10.362;2022-07-22T03:13:50;3.93;;;3.10;;
18693;SDS011;9477;51.414;10.362;2022-07-22T03:15:54;2.97;;;2.73;;
18693;SDS011;9477;51.414;10.362;2022-07-22T03:17:56;3.97;;;3.10;;
18693;SDS011;9477;51.414;10.362;2022-07-22T03:20:00;5.17;;;2.73;;
18693;SDS011;9477;51.414;10.362;2022-07-22T03:22:03;3.87;;;3.47;;
18693;SDS011;9477;51.414;10.362;2022-07-22T03:24:06;5.57;;;2.80;;
18693;SDS011;9477;51.414;10.362;2022-07-22T03:26:09;3.07;;;2.77;;
18693;SDS011;9477;51.414;10.362;2022-07-22T03:28:12;3.53;;;3.23;;
18693;SDS011;9477;51.414;10.362;2022-07-22T03:30:15;4.37;;;3.10;;
18693;SDS011;9477;51.414;10.362;2022-07-22T03:32:19;3.67;;;2.97;;
18693;SDS011;9477;51.414;10.362;2022-07-22T03:34:21;3.57;;;2.90;;
18693;SDS011;9477;51.414;10.362;2022-07-22T03:36:25;3.33;;;3.03;;
18693;SDS011;9477;51.414;10.362;2022-07-22T03:38:28;5.80;;;2.80;;
18693;SDS011;9477;51.414;10.362;2022-07-22T03:40:31;3.80;;;3.20;;
18693;SDS011;9477;51.414;10.362;2022-07-22T03:42:34;4.00;;;2.83;;
18693;SDS011;9477;51.414;10.362;2022-07-22T03:44:37;5.47;;;3.50;;
18693;SDS011;9477;51.414;10.362;2022-07-22T03:46:39;4.57;;;3.37;;
18693;SDS011;9477;51.414;10.362;2022-07-22T03:48:44;3.70;;;2.80;;
18693;SDS011;9477;51.414;10.362;2022-07-22T03:50:46;4.10;;;2.97;;
18693;SDS011;9477;51.414;10.362;2022-07-22T03:52:50;3.77;;;3.23;;
18693;SDS011;9477;51.414;10.362;2022-07-22T03:54:53;4.67;;;3.40;;
18693;SDS011;9477;51.414;10.362;2022-07-22T03:56:56;4.63;;;2.80;;
18693;SDS011;9477;51.414;10.362;2022-07-22T03:58:59;5.17;;;3.20;;
18693;SDS011;9477;51.414;10.362;2022-07-22T04:01:02;4.20;;;2.90;;
18693;SDS011;9477;51.414;10.362;2022-07-22T04:03:05;4.40;;;3.10;;
18693;SDS011;9477;51.414;10.362;2022-07-22T04:05:09;3.60;;;3.00;;
18693;SDS011;9477;51.414;10.362;2022-07-22T04:07:12;3.17;;;2.87;;
18693;SDS011;9477;51.414;10.362;2022-07-22T04:09:14;3.43;;;2.60;;
18693;SDS011;9477;51.414;10.362;2022-07-22T04:11:17;3.03;;;2.40;;
18693;SDS011;9477;51.414;10.362;2022-07-22T04:13:20;3.13;;;2.10;;
18693;SDS011;9477;51.414;10.362;2022-07-22T04:15:23;3.53;;;2.20;;
18693;SDS011;9477;51.414;10.362;2022-07-22T04:17:26;2.30;;;2.10;;
18693;SDS011;9477;51.414;10.362;2022-07-22T04:19:29;3.53;;;2.10;;
18693;SDS011;9477;51.414;10.362;2022-07-22T04:21:33;3.33;;;2.30;;
18693;SDS011;9477;51.414;10.362;2022-07-22T04:23:36;2.53;;;2.00;;
18693;SDS011;9477;51.414;10.362;2022-07-22T04:25:40;4.50;;;3.00;;
18693;SDS011;9477;51.414;10.362;2022-07-22T04:27:43;3.00;;;2.10;;
18693;SDS011;9477;51.414;10.362;2022-07-22T04:29:46;3.00;;;2.03;;
18693;SDS011;9477;51.414;10.362;2022-07-22T04:31:48;3.40;;;2.80;;
18693;SDS011;9477;51.414;10.362;2022-07-22T04:33:52;5.57;;;1.60;;
18693;SDS011;9477;51.414;10.362;2022-07-22T04:35:54;2.83;;;1.50;;
18693;SDS011;9477;51.414;10.362;2022-07-22T04:37:59;1.47;;;1.37;;
18693;SDS011;9477;51.414;10.362;2022-07-22T04:40:02;2.00;;;1.37;;
18693;SDS011;9477;51.414;10.362;2022-07-22T04:42:06;2.93;;;1.27;;
18693;SDS011;9477;51.414;10.362;2022-07-22T04:44:09;1.63;;;1.30;;
18693;SDS011;9477;51.414;10.362;2022-07-22T04:46:12;2.13;;;1.27;;
18693;SDS011;9477;51.414;10.362;2022-07-22T04:48:15;2.77;;;1.50;;
18693;SDS011;9477;51.414;10.362;2022-07-22T04:50:17;1.80;;;1.30;;
18693;SDS011;9477;51.414;10.362;2022-07-22T04:52:20;3.30;;;1.30;;
18693;SDS011;9477;51.414;10.362;2022-07-22T04:54:25;1.07;;;1.00;;
18693;SDS011;9477;51.414;10.362;2022-07-22T04:56:27;2.00;;;1.07;;
18693;SDS011;9477;51.414;10.362;2022-07-22T04:58:30;4.00;;;1.23;;
18693;SDS011;9477;51.414;10.362;2022-07-22T05:00:33;1.43;;;1.20;;
18693;SDS011;9477;51.414;10.362;2022-07-22T05:02:36;2.20;;;0.93;;
18693;SDS011;9477;51.414;10.362;2022-07-22T05:04:39;2.83;;;1.00;;
18693;SDS011;9477;51.414;10.362;2022-07-22T05:06:41;1.17;;;1.00;;
18693;SDS011;9477;51.414;10.362;2022-07-22T05:08:44;1.27;;;1.00;;
18693;SDS011;9477;51.414;10.362;2022-07-22T05:10:48;3.70;;;1.10;;
18693;SDS011;9477;51.414;10.362;2022-07-22T05:12:51;1.00;;;1.00;;
18693;SDS011;9477;51.414;10.362;2022-07-22T05:14:54;1.37;;;1.00;;
18693;SDS011;9477;51.414;10.362;2022-07-22T05:16:57;1.27;;;0.90;;
18693;SDS011;9477;51.414;10.362;2022-07-22T05:19:00;0.97;;;0.70;;
18693;SDS011;9477;51.414;10.362;2022-07-22T05:21:03;1.93;;;1.50;;
18693;SDS011;9477;51.414;10.362;2022-07-22T05:23:07;0.60;;;0.60;;
18693;SDS011;9477;51.414;10.362;2022-07-22T05:25:10;2.17;;;0.80;;
18693;SDS011;9477;51.414;10.362;2022-07-22T05:27:14;1.03;;;0.90;;
18693;SDS011;9477;51.414;10.362;2022-07-22T05:29:17;1.70;;;0.60;;
18693;SDS011;9477;51.414;10.362;2022-07-22T05:31:19;1.73;;;0.60;;
18693;SDS011;9477;51.414;10.362;2022-07-22T05:33:22;3.10;;;0.70;;
18693;SDS011;9477;51.414;10.362;2022-07-22T05:35:25;0.50;;;0.50;;
18693;SDS011;9477;51.414;10.362;2022-07-22T05:37:28;0.90;;;0.70;;
18693;SDS011;9477;51.414;10.362;2022-07-22T05:39:31;1.47;;;0.77;;
18693;SDS011;9477;51.414;10.362;2022-07-22T05:41:34;4.60;;;0.67;;
18693;SDS011;9477;51.414;10.362;2022-07-22T05:43:40;2.00;;;0.60;;
18693;SDS011;9477;51.414;10.362;2022-07-22T05:45:43;0.73;;;0.50;;
18693;SDS011;9477;51.414;10.362;2022-07-22T05:47:46;0.47;;;0.47;;
18693;SDS011;9477;51.414;10.362;2022-07-22T05:49:48;1.27;;;0.63;;
18693;SDS011;9477;51.414;10.362;2022-07-22T05:51:51;0.67;;;0.67;;
18693;SDS011;9477;51.414;10.362;2022-07-22T05:53:54;0.50;;;0.50;;
18693;SDS011;9477;51.414;10.362;2022-07-22T05:55:57;4.47;;;0.70;;
18693;SDS011;9477;51.414;10.362;2022-07-22T05:58:06;0.50;;;0.50;;
18693;SDS011;9477;51.414;10.362;2022-07-22T06:00:11;1.80;;;0.73;;
18693;SDS011;9477;51.414;10.362;2022-07-22T06:02:14;1.57;;;1.00;;
18693;SDS011;9477;51.414;10.362;2022-07-22T06:04:17;2.50;;;1.30;;
18693;SDS011;9477;51.414;10.362;2022-07-22T06:06:20;1.60;;;1.50;;
18693;SDS011;9477;51.414;10.362;2022-07-22T06:08:23;2.40;;;1.00;;
18693;SDS011;9477;51.414;10.362;2022-07-22T06:10:26;1.07;;;1.00;;
18693;SDS011;9477;51.414;10.362;2022-07-22T06:12:29;1.13;;;1.03;;
18693;SDS011;9477;51.414;10.362;2022-07-22T06:14:32;1.30;;;1.17;;
18693;SDS011;9477;51.414;10.362;2022-07-22T06:16:36;1.30;;;1.10;;
18693;SDS011;9477;51.414;10.362;2022-07-22T06:18:39;1.03;;;0.90;;
18693;SDS011;9477;51.414;10.362;2022-07-22T06:20:42;0.93;;;0.80;;
18693;SDS011;9477;51.414;10.362;2022-07-22T06:22:45;1.47;;;0.63;;
18693;SDS011;9477;51.414;10.362;2022-07-22T06:24:48;0.67;;;0.67;;
18693;SDS011;9477;51.414;10.362;2022-07-22T06:26:51;2.10;;;0.80;;
18693;SDS011;9477;51.414;10.362;2022-07-22T06:28:54;3.87;;;0.87;;
18693;SDS011;9477;51.414;10.362;2022-07-22T06:30:57;1.57;;;0.80;;
18693;SDS011;9477;51.414;10.362;2022-07-22T06:33:01;2.33;;;0.80;;
18693;SDS011;9477;51.414;10.362;2022-07-22T06:35:04;1.10;;;0.80;;
18693;SDS011;9477;51.414;10.362;2022-07-22T06:37:07;0.90;;;0.90;;
18693;SDS011;9477;51.414;10.362;2022-07-22T06:39:11;1.20;;;1.10;;
18693;SDS011;9477;51.414;10.362;2022-07-22T06:41:13;1.80;;;1.10;;
18693;SDS011;9477;51.414;10.362;2022-07-22T06:43:20;3.60;;;1.10;;
18693;SDS011;9477;51.414;10.362;2022-07-22T06:45:23;1.13;;;1.00;;
18693;SDS011;9477;51.414;10.362;2022-07-22T06:47:26;1.40;;;1.10;;
18693;SDS011;9477;51.414;10.362;2022-07-22T06:49:32;1.80;;;1.57;;
18693;SDS011;9477;51.414;10.362;2022-07-22T06:51:35;1.60;;;1.50;;
18693;SDS011;9477;51.414;10.362;2022-07-22T06:53:38;2.73;;;1.10;;
18693;SDS011;9477;51.414;10.362;2022-07-22T06:55:41;3.17;;;1.37;;
18693;SDS011;9477;51.414;10.362;2022-07-22T06:57:43;1.70;;;1.10;;
18693;SDS011;9477;51.414;10.362;2022-07-22T06:59:46;1.30;;;1.10;;
18693;SDS011;9477;51.414;10.362;2022-07-22T07:01:49;1.77;;;1.20;;
18693;SDS011;9477;51.414;10.362;2022-07-22T07:03:52;1.63;;;1.20;;
18693;SDS011;9477;51.414;10.362;2022-07-22T07:05:56;1.13;;;1.13;;
18693;SDS011;9477;51.414;10.362;2022-07-22T07:07:59;3.47;;;1.20;;
18693;SDS011;9477;51.414;10.362;2022-07-22T07:10:03;1.20;;;1.10;;
18693;SDS011;9477;51.414;10.362;2022-07-22T07:12:09;1.43;;;1.10;;
18693;SDS011;9477;51.414;10.362;2022-07-22T07:14:12;1.10;;;1.00;;
18693;SDS011;9477;51.414;10.362;2022-07-22T07:16:15;2.03;;;1.10;;
18693;SDS011;9477;51.414;10.362;2022-07-22T07:18:18;0.80;;;0.80;;
18693;SDS011;9477;51.414;10.362;2022-07-22T07:20:21;1.00;;;0.90;;
18693;SDS011;9477;51.414;10.362;2022-07-22T07:22:25;0.80;;;0.80;;
18693;SDS011;9477;51.414;10.362;2022-07-22T07:24:28;0.80;;;0.80;;
18693;SDS011;9477;51.414;10.362;2022-07-22T07:26:31;1.10;;;1.00;;
18693;SDS011;9477;51.414;10.362;2022-07-22T07:28:34;1.13;;;0.90;;
18693;SDS011;9477;51.414;10.362;2022-07-22T07:30:37;0.97;;;0.90;;
18693;SDS011;9477;51.414;10.362;2022-07-22T07:32:40;0.80;;;0.80;;
18693;SDS011;9477;51.414;10.362;2022-07-22T07:34:43;1.03;;;0.80;;
18693;SDS011;9477;51.414;10.362;2022-07-22T07:36:45;1.40;;;0.80;;
18693;SDS011;9477;51.414;10.362;2022-07-22T07:38:49;3.07;;;0.90;;
18693;SDS011;9477;51.414;10.362;2022-07-22T07:40:52;2.10;;;0.70;;
18693;SDS011;9477;51.414;10.362;2022-07-22T07:42:55;0.87;;;0.77;;
18693;SDS011;9477;51.414;10.362;2022-07-22T07:45:04;1.07;;;0.87;;
18693;SDS011;9477;51.414;10.362;2022-07-22T07:47:07;0.77;;;0.77;;
18693;SDS011;9477;51.414;10.362;2022-07-22T07:49:10;0.80;;;0.80;;
18693;SDS011;9477;51.414;10.362;2022-07-22T07:51:12;0.80;;;0.80;;
18693;SDS011;9477;51.414;10.362;2022-07-22T07:53:15;0.70;;;0.70;;
18693;SDS011;9477;51.414;10.362;2022-07-22T07:55:21;1.03;;;0.80;;
18693;SDS011;9477;51.414;10.362;2022-07-22T07:57:24;1.13;;;1.03;;
18693;SDS011;9477;51.414;10.362;2022-07-22T07:59:27;1.13;;;0.70;;
18693;SDS011;9477;51.414;10.362;2022-07-22T08:01:31;0.80;;;0.80;;
18693;SDS011;9477;51.414;10.362;2022-07-22T08:03:54;0.70;;;0.70;;
18693;SDS011;9477;51.414;10.362;2022-07-22T08:06:17;0.70;;;0.70;;
18693;SDS011;9477;51.414;10.362;2022-07-22T08:08:21;1.57;;;1.30;;
18693;SDS011;9477;51.414;10.362;2022-07-22T08:10:25;1.30;;;0.70;;
18693;SDS011;9477;51.414;10.362;2022-07-22T08:12:49;0.70;;;0.70;;
18693;SDS011;9477;51.414;10.362;2022-07-22T08:14:52;1.03;;;0.70;;
18693;SDS011;9477;51.414;10.362;2022-07-22T08:16:55;0.80;;;0.80;;
18693;SDS011;9477;51.414;10.362;2022-07-22T08:18:58;0.70;;;0.70;;
18693;SDS011;9477;51.414;10.362;2022-07-22T08:21:01;0.93;;;0.80;;
18693;SDS011;9477;51.414;10.362;2022-07-22T08:23:04;1.00;;;0.80;;
18693;SDS011;9477;51.414;10.362;2022-07-22T08:25:08;0.80;;;0.80;;
18693;SDS011;9477;51.414;10.362;2022-07-22T08:27:12;1.10;;;0.80;;
18693;SDS011;9477;51.414;10.362;2022-07-22T08:29:15;0.90;;;0.80;;
18693;SDS011;9477;51.414;10.362;2022-07-22T08:31:17;1.73;;;0.83;;
18693;SDS011;9477;51.414;10.362;2022-07-22T08:33:20;1.07;;;0.90;;
18693;SDS011;9477;51.414;10.362;2022-07-22T08:35:23;1.17;;;0.83;;
18693;SDS011;9477;51.414;10.362;2022-07-22T08:37:26;0.80;;;0.80;;
18693;SDS011;9477;51.414;10.362;2022-07-22T08:39:29;2.47;;;2.27;;
18693;SDS011;9477;51.414;10.362;2022-07-22T08:41:33;2.30;;;1.47;;
18693;SDS011;9477;51.414;10.362;2022-07-22T08:43:39;1.17;;;1.00;;
18693;SDS011;9477;51.414;10.362;2022-07-22T08:45:44;0.97;;;0.90;;
18693;SDS011;9477;51.414;10.362;2022-07-22T08:47:50;1.30;;;1.10;;
18693;SDS011;9477;51.414;10.362;2022-07-22T08:49:54;1.10;;;0.90;;
18693;SDS011;9477;51.414;10.362;2022-07-22T08:51:56;0.93;;;0.80;;
18693;SDS011;9477;51.414;10.362;2022-07-22T08:53:59;0.90;;;0.90;;
18693;SDS011;9477;51.414;10.362;2022-07-22T08:56:02;1.80;;;0.90;;
18693;SDS011;9477;51.414;10.362;2022-07-22T08:58:05;2.17;;;1.00;;
18693;SDS011;9477;51.414;10.362;2022-07-22T09:00:10;0.90;;;0.80;;
18693;SDS011;9477;51.414;10.362;2022-07-22T09:02:15;1.10;;;0.90;;
18693;SDS011;9477;51.414;10.362;2022-07-22T09:04:17;5.40;;;1.00;;
18693;SDS011;9477;51.414;10.362;2022-07-22T09:06:21;3.90;;;1.10;;
18693;SDS011;9477;51.414;10.362;2022-07-22T09:08:25;1.23;;;1.00;;
18693;SDS011;9477;51.414;10.362;2022-07-22T09:10:30;1.83;;;1.00;;
18693;SDS011;9477;51.414;10.362;2022-07-22T09:12:34;1.27;;;1.00;;
18693;SDS011;9477;51.414;10.362;2022-07-22T09:14:53;1.90;;;0.80;;
18693;SDS011;9477;51.414;10.362;2022-07-22T09:16:59;2.40;;;0.90;;
18693;SDS011;9477;51.414;10.362;2022-07-22T09:19:01;3.13;;;1.00;;
18693;SDS011;9477;51.414;10.362;2022-07-22T09:21:05;6.50;;;1.17;;
18693;SDS011;9477;51.414;10.362;2022-07-22T09:23:16;2.53;;;1.00;;
18693;SDS011;9477;51.414;10.362;2022-07-22T09:25:25;3.07;;;0.90;;
18693;SDS011;9477;51.414;10.362;2022-07-22T09:27:29;1.00;;;0.97;;
18693;SDS011;9477;51.414;10.362;2022-07-22T09:29:32;1.10;;;1.00;;
18693;SDS011;9477;51.414;10.362;2022-07-22T09:31:38;1.20;;;1.03;;
18693;SDS011;9477;51.414;10.362;2022-07-22T09:33:44;4.57;;;1.20;;
18693;SDS011;9477;51.414;10.362;2022-07-22T09:35:50;1.93;;;0.83;;
18693;SDS011;9477;51.414;10.362;2022-07-22T09:37:54;3.30;;;1.07;;
18693;SDS011;9477;51.414;10.362;2022-07-22T09:40:11;1.43;;;0.93;;
18693;SDS011;9477;51.414;10.362;2022-07-22T09:42:15;0.93;;;0.93;;
18693;SDS011;9477;51.414;10.362;2022-07-22T09:44:21;1.10;;;1.00;;
18693;SDS011;9477;51.414;10.362;2022-07-22T09:46:34;1.10;;;0.90;;
18693;SDS011;9477;51.414;10.362;2022-07-22T09:48:39;5.40;;;1.20;;
18693;SDS011;9477;51.414;10.362;2022-07-22T09:50:45;1.63;;;1.20;;
18693;SDS011;9477;51.414;10.362;2022-07-22T09:52:48;1.23;;;1.00;;
18693;SDS011;9477;51.414;10.362;2022-07-22T09:54:54;0.90;;;0.90;;
18693;SDS011;9477;51.414;10.362;2022-07-22T09:56:57;2.57;;;1.10;;
18693;SDS011;9477;51.414;10.362;2022-07-22T09:59:00;2.60;;;1.00;;
18693;SDS011;9477;51.414;10.362;2022-07-22T10:01:05;4.33;;;1.10;;
18693;SDS011;9477;51.414;10.362;2022-07-22T10:03:11;1.80;;;1.10;;
18693;SDS011;9477;51.414;10.362;2022-07-22T10:05:18;1.43;;;1.20;;
18693;SDS011;9477;51.414;10.362;2022-07-22T10:07:24;1.57;;;0.90;;
18693;SDS011;9477;51.414;10.362;2022-07-22T10:09:27;1.70;;;0.97;;
18693;SDS011;9477;51.414;10.362;2022-07-22T10:11:32;1.00;;;1.00;;
18693;SDS011;9477;51.414;10.362;2022-07-22T10:13:36;1.63;;;0.90;;
18693;SDS011;9477;51.414;10.362;2022-07-22T10:15:42;1.13;;;1.10;;
18693;SDS011;9477;51.414;10.362;2022-07-22T10:17:46;1.23;;;1.00;;
18693;SDS011;9477;51.414;10.362;2022-07-22T10:19:50;1.35;;;1.00;;
18693;SDS011;9477;51.414;10.362;2022-07-22T10:21:53;3.43;;;1.40;;
18693;SDS011;9477;51.414;10.362;2022-07-22T10:24:13;1.48;;;1.02;;
18693;SDS011;9477;51.414;10.362;2022-07-22T10:26:19;1.10;;;1.00;;
18693;SDS011;9477;51.414;10.362;2022-07-22T10:28:23;0.95;;;0.95;;
18693;SDS011;9477;51.414;10.362;2022-07-22T10:30:28;0.80;;;0.80;;
18693;SDS011;9477;51.414;10.362;2022-07-22T10:32:32;0.90;;;0.90;;
18693;SDS011;9477;51.414;10.362;2022-07-22T10:34:35;2.03;;;1.40;;
18693;SDS011;9477;51.414;10.362;2022-07-22T10:36:38;1.87;;;1.00;;
18693;SDS011;9477;51.414;10.362;2022-07-22T10:39:01;0.90;;;0.90;;
18693;SDS011;9477;51.414;10.362;2022-07-22T10:41:07;2.37;;;1.00;;
18693;SDS011;9477;51.414;10.362;2022-07-22T10:43:12;0.90;;;0.90;;
18693;SDS011;9477;51.414;10.362;2022-07-22T10:45:15;1.13;;;1.07;;
18693;SDS011;9477;51.414;10.362;2022-07-22T10:47:33;3.80;;;1.00;;
18693;SDS011;9477;51.414;10.362;2022-07-22T10:49:54;1.30;;;1.20;;
18693;SDS011;9477;51.414;10.362;2022-07-22T10:52:09;1.13;;;1.13;;
18693;SDS011;9477;51.414;10.362;2022-07-22T10:54:19;2.37;;;1.00;;
18693;SDS011;9477;51.414;10.362;2022-07-22T10:56:40;7.23;;;1.10;;
18693;SDS011;9477;51.414;10.362;2022-07-22T10:58:54;4.23;;;1.20;;
18693;SDS011;9477;51.414;10.362;2022-07-22T11:01:00;2.70;;;1.37;;
18693;SDS011;9477;51.414;10.362;2022-07-22T11:03:04;1.00;;;1.00;;
18693;SDS011;9477;51.414;10.362;2022-07-22T11:05:07;1.50;;;1.20;;
18693;SDS011;9477;51.414;10.362;2022-07-22T11:07:10;1.27;;;1.17;;
18693;SDS011;9477;51.414;10.362;2022-07-22T11:09:15;1.70;;;1.30;;
18693;SDS011;9477;51.414;10.362;2022-07-22T11:11:30;2.13;;;1.10;;
18693;SDS011;9477;51.414;10.362;2022-07-22T11:13:36;1.93;;;1.20;;
18693;SDS011;9477;51.414;10.362;2022-07-22T11:15:40;1.45;;;1.30;;
18693;SDS011;9477;51.414;10.362;2022-07-22T11:17:43;1.50;;;1.40;;
18693;SDS011;9477;51.414;10.362;2022-07-22T11:19:46;1.92;;;1.40;;
18693;SDS011;9477;51.414;10.362;2022-07-22T11:21:53;2.05;;;1.90;;
18693;SDS011;9477;51.414;10.362;2022-07-22T11:23:59;5.65;;;1.30;;
18693;SDS011;9477;51.414;10.362;2022-07-22T11:26:04;3.38;;;1.92;;
18693;SDS011;9477;51.414;10.362;2022-07-22T11:28:07;2.20;;;1.40;;
18693;SDS011;9477;51.414;10.362;2022-07-22T11:30:11;1.80;;;1.35;;
18693;SDS011;9477;51.414;10.362;2022-07-22T11:32:16;1.45;;;1.30;;
18693;SDS011;9477;51.414;10.362;2022-07-22T11:34:19;2.15;;;1.35;;
18693;SDS011;9477;51.414;10.362;2022-07-22T11:36:23;2.95;;;1.30;;
18693;SDS011;9477;51.414;10.362;2022-07-22T11:38:38;1.50;;;1.40;;
18693;SDS011;9477;51.414;10.362;2022-07-22T11:40:53;2.72;;;1.48;;
18693;SDS011;9477;51.414;10.362;2022-07-22T11:43:02;1.35;;;1.25;;
18693;SDS011;9477;51.414;10.362;2022-07-22T11:45:06;2.05;;;1.30;;
18693;SDS011;9477;51.414;10.362;2022-07-22T11:47:10;2.22;;;1.45;;
18693;SDS011;9477;51.414;10.362;2022-07-22T11:49:14;3.50;;;1.40;;
18693;SDS011;9477;51.414;10.362;2022-07-22T11:51:18;1.40;;;1.27;;
18693;SDS011;9477;51.414;10.362;2022-07-22T11:53:21;6.38;;;1.40;;
18693;SDS011;9477;51.414;10.362;2022-07-22T11:55:24;1.63;;;1.33;;
18693;SDS011;9477;51.414;10.362;2022-07-22T11:57:27;2.03;;;1.48;;
18693;SDS011;9477;51.414;10.362;2022-07-22T11:59:30;3.13;;;1.75;;
18693;SDS011;9477;51.414;10.362;2022-07-22T12:01:34;2.42;;;1.98;;
18693;SDS011;9477;51.414;10.362;2022-07-22T12:03:39;2.78;;;1.45;;
18693;SDS011;9477;51.414;10.362;2022-07-22T12:05:44;3.00;;;1.83;;
18693;SDS011;9477;51.414;10.362;2022-07-22T12:07:47;2.10;;;1.70;;
18693;SDS011;9477;51.414;10.362;2022-07-22T12:09:56;1.92;;;1.73;;
18693;SDS011;9477;51.414;10.362;2022-07-22T12:11:59;3.45;;;2.35;;
18693;SDS011;9477;51.414;10.362;2022-07-22T12:14:05;7.78;;;2.47;;
18693;SDS011;9477;51.414;10.362;2022-07-22T12:16:20;2.35;;;1.40;;
18693;SDS011;9477;51.414;10.362;2022-07-22T12:18:25;6.88;;;1.88;;
18693;SDS011;9477;51.414;10.362;2022-07-22T12:20:31;2.40;;;1.90;;
18693;SDS011;9477;51.414;10.362;2022-07-22T12:22:33;3.00;;;1.75;;
18693;SDS011;9477;51.414;10.362;2022-07-22T12:24:57;3.15;;;1.50;;
18693;SDS011;9477;51.414;10.362;2022-07-22T12:27:02;2.20;;;1.65;;
18693;SDS011;9477;51.414;10.362;2022-07-22T12:29:19;7.55;;;1.70;;